Time;durP1;ratioP1;P1;durP2;ratioP2;P2;SDS_P1;SDS_P2;PMS_P1;PMS_P2;Temp;Humidity;BMP_temperature;BMP_pressure;BME280_temperature;BME280_humidity;BME280_pressure;Samples;Min_cycle;Max_cycle;Signal;HPM_P1;HPM_P2
2023/08/21 00:02:18;;;;;;;7.53;2.30;;;19.20;99.90;;;;;;5008557;28;20273;-72
2023/08/21 00:04:44;;;;;;;7.13;2.50;;;19.10;99.90;;;;;;4994709;28;20026;-72
2023/08/21 00:07:11;;;;;;;8.77;2.20;;;19.10;99.90;;;;;;4994961;28;20054;-72
2023/08/21 00:09:37;;;;;;;7.30;2.38;;;19.10;99.90;;;;;;4981046;28;20027;-72
2023/08/21 00:12:03;;;;;;;6.25;2.13;;;19.10;99.90;;;;;;4994126;28;20505;-72
2023/08/21 00:14:28;;;;;;;6.38;2.45;;;19.10;99.90;;;;;;4994855;28;20025;-71
2023/08/21 00:16:54;;;;;;;5.10;2.28;;;19.10;99.90;;;;;;5010713;28;20036;-72
2023/08/21 00:19:19;;;;;;;7.10;2.10;;;19.00;99.90;;;;;;4998510;28;20030;-72
2023/08/21 00:21:45;;;;;;;7.40;2.08;;;19.00;99.90;;;;;;4999830;28;20025;-72
2023/08/21 00:24:11;;;;;;;6.40;2.10;;;19.00;99.90;;;;;;5000710;28;20037;-72
2023/08/21 00:26:37;;;;;;;6.82;2.10;;;19.00;99.90;;;;;;5007514;28;20022;-72
2023/08/21 00:29:02;;;;;;;7.60;2.47;;;19.00;99.90;;;;;;4993078;28;20496;-72
2023/08/21 00:31:28;;;;;;;8.10;2.22;;;19.00;99.90;;;;;;4993995;28;20381;-72
2023/08/21 00:33:53;;;;;;;6.78;2.33;;;19.00;99.90;;;;;;4994081;28;20026;-72
2023/08/21 00:36:20;;;;;;;6.47;2.30;;;19.00;99.90;;;;;;5011116;28;20050;-72
2023/08/21 00:38:45;;;;;;;8.60;2.35;;;19.00;99.90;;;;;;4994504;28;20019;-72
2023/08/21 00:41:12;;;;;;;6.25;2.03;;;19.00;99.90;;;;;;5003307;28;20451;-72
2023/08/21 00:43:37;;;;;;;9.18;2.40;;;19.00;99.90;;;;;;4998885;28;20041;-72
2023/08/21 00:46:03;;;;;;;6.72;2.13;;;19.00;99.90;;;;;;4999960;28;20097;-72
2023/08/21 00:48:29;;;;;;;5.35;2.20;;;19.00;99.90;;;;;;5013695;28;20072;-72
2023/08/21 00:50:55;;;;;;;7.90;2.10;;;19.00;99.90;;;;;;5001819;28;20053;-72
2023/08/21 00:53:21;;;;;;;5.28;2.00;;;19.00;99.90;;;;;;4986238;28;20041;-72
2023/08/21 00:55:47;;;;;;;8.45;2.33;;;19.00;99.90;;;;;;4994071;28;20410;-72
2023/08/21 00:58:13;;;;;;;5.72;2.10;;;19.00;99.90;;;;;;4994240;28;20046;-72
2023/08/21 01:00:41;;;;;;;5.72;2.08;;;19.00;99.90;;;;;;4994345;28;20057;-71
2023/08/21 01:03:07;;;;;;;8.65;2.35;;;19.00;99.90;;;;;;4994977;28;20105;-72
2023/08/21 01:05:35;;;;;;;8.18;2.38;;;19.00;99.90;;;;;;5009480;28;20042;-72
2023/08/21 01:08:05;;;;;;;7.68;2.30;;;19.00;99.90;;;;;;4993939;28;20026;-72
2023/08/21 01:10:59;;;;;;;8.35;2.28;;;18.90;99.90;;;;;;4986739;28;20014;-72
2023/08/21 01:13:54;;;;;;;7.10;2.30;;;18.90;99.90;;;;;;4998648;28;20029;-72
2023/08/21 01:16:21;;;;;;;8.00;2.10;;;18.90;99.90;;;;;;5001144;28;20034;-72
2023/08/21 01:18:48;;;;;;;5.97;2.25;;;18.90;99.90;;;;;;4993429;28;20136;-72
2023/08/21 01:21:15;;;;;;;6.75;2.15;;;18.90;99.90;;;;;;4994778;28;20018;-71
2023/08/21 01:23:42;;;;;;;5.13;2.17;;;18.90;99.90;;;;;;4994594;28;20474;-72
2023/08/21 01:26:08;;;;;;;9.25;2.60;;;18.90;99.90;;;;;;4993590;28;20022;-72
2023/08/21 01:28:34;;;;;;;4.82;2.17;;;18.90;99.90;;;;;;4996371;28;20034;-72
2023/08/21 01:31:13;;;;;;;10.07;2.90;;;18.80;99.90;;;;;;5003344;28;20449;-72
2023/08/21 01:33:45;;;;;;;5.97;2.50;;;18.80;99.90;;;;;;4995000;28;20041;-72
2023/08/21 01:36:11;;;;;;;8.13;2.80;;;18.80;99.90;;;;;;4995730;28;20073;-72
2023/08/21 01:38:38;;;;;;;5.68;2.55;;;18.80;99.90;;;;;;4993494;28;20469;-71
2023/08/21 01:41:03;;;;;;;8.25;2.70;;;18.80;99.90;;;;;;5004909;28;20030;-72
2023/08/21 01:43:29;;;;;;;9.73;2.75;;;18.80;99.90;;;;;;4990138;28;20510;-72
2023/08/21 01:45:55;;;;;;;5.57;2.50;;;18.80;99.90;;;;;;4993210;28;20030;-72
2023/08/21 01:48:21;;;;;;;7.47;2.60;;;18.80;99.90;;;;;;4993488;28;20034;-72
2023/08/21 01:50:46;;;;;;;8.07;2.63;;;18.80;99.90;;;;;;4993191;28;20109;-72
2023/08/21 01:53:12;;;;;;;10.05;2.78;;;18.80;99.90;;;;;;4993358;28;20014;-72
2023/08/21 01:55:38;;;;;;;10.55;2.80;;;18.80;99.90;;;;;;4993423;28;20485;-72
2023/08/21 01:58:03;;;;;;;6.82;2.50;;;18.70;99.90;;;;;;4993309;28;20011;-72
2023/08/21 02:00:29;;;;;;;8.70;2.47;;;18.70;99.90;;;;;;5013182;28;20046;-72
2023/08/21 02:02:55;;;;;;;5.15;2.40;;;18.70;99.90;;;;;;4998857;28;20030;-72
2023/08/21 02:05:20;;;;;;;9.63;2.38;;;18.70;99.90;;;;;;4987148;28;20034;-72
2023/08/21 02:07:46;;;;;;;7.55;2.60;;;18.60;99.90;;;;;;4993211;28;20114;-72
2023/08/21 02:10:12;;;;;;;6.35;2.75;;;18.60;99.90;;;;;;4993318;28;20054;-72
2023/08/21 02:12:37;;;;;;;9.52;3.00;;;18.60;99.90;;;;;;4996934;28;20272;-72
2023/08/21 02:15:03;;;;;;;9.80;3.22;;;18.60;99.90;;;;;;4999339;28;20150;-72
2023/08/21 02:17:30;;;;;;;8.38;3.10;;;18.60;99.90;;;;;;5005015;28;20049;-72
2023/08/21 02:19:55;;;;;;;8.32;3.05;;;18.60;99.90;;;;;;4996296;28;20037;-72
2023/08/21 02:22:21;;;;;;;8.35;3.08;;;18.60;99.90;;;;;;4996223;28;20474;-72
2023/08/21 02:24:47;;;;;;;8.48;3.00;;;18.50;99.90;;;;;;4996117;28;20057;-72
2023/08/21 02:27:12;;;;;;;9.82;3.20;;;18.50;99.90;;;;;;5003102;28;20171;-72
2023/08/21 02:29:38;;;;;;;7.82;3.10;;;18.50;99.90;;;;;;5002958;28;20105;-72
2023/08/21 02:32:04;;;;;;;9.45;2.90;;;18.50;99.90;;;;;;4997988;28;20022;-72
2023/08/21 02:34:29;;;;;;;5.05;2.72;;;18.40;99.90;;;;;;4997798;28;20112;-72
2023/08/21 02:36:55;;;;;;;8.98;3.03;;;18.40;99.90;;;;;;5001958;28;20029;-72
2023/08/21 02:39:21;;;;;;;7.75;2.90;;;18.40;99.90;;;;;;5002096;28;20045;-72
2023/08/21 02:41:46;;;;;;;8.38;2.97;;;18.40;99.90;;;;;;5001940;28;20057;-72
2023/08/21 02:44:12;;;;;;;7.57;3.00;;;18.40;99.90;;;;;;5003612;28;20030;-72
2023/08/21 02:46:38;;;;;;;6.93;3.15;;;18.30;99.90;;;;;;4996468;28;20105;-72
2023/08/21 02:49:05;;;;;;;8.35;3.00;;;18.30;99.90;;;;;;4995834;28;20070;-71
2023/08/21 02:51:30;;;;;;;9.52;2.92;;;18.30;99.90;;;;;;5006110;28;20388;-71
2023/08/21 02:53:56;;;;;;;10.07;2.85;;;18.20;99.90;;;;;;4999146;28;20093;-72
2023/08/21 02:56:22;;;;;;;8.23;3.13;;;18.20;99.90;;;;;;5007646;28;20470;-72
2023/08/21 02:58:47;;;;;;;9.32;2.80;;;18.20;99.90;;;;;;4992336;28;20066;-72
2023/08/21 03:01:13;;;;;;;8.07;2.90;;;18.20;99.90;;;;;;4995866;28;20022;-72
2023/08/21 03:03:39;;;;;;;9.38;3.47;;;18.20;99.90;;;;;;4998700;28;20022;-72
2023/08/21 03:06:04;;;;;;;10.18;3.55;;;18.20;99.90;;;;;;5011634;28;20033;-72
2023/08/21 03:08:30;;;;;;;10.27;3.50;;;18.20;99.90;;;;;;5008544;28;20092;-72
2023/08/21 03:10:56;;;;;;;9.35;2.95;;;18.20;99.90;;;;;;5008867;28;20026;-72
2023/08/21 03:13:22;;;;;;;8.80;3.10;;;18.20;99.90;;;;;;4999078;28;20018;-72
2023/08/21 03:15:47;;;;;;;8.73;3.28;;;18.10;99.90;;;;;;4994145;28;20023;-72
2023/08/21 03:18:13;;;;;;;8.38;3.10;;;18.10;99.90;;;;;;4993224;28;20025;-73
2023/08/21 03:20:45;;;;;;;6.25;3.08;;;18.10;99.90;;;;;;4994174;28;20026;-72
2023/08/21 03:23:10;;;;;;;9.90;3.63;;;18.10;99.90;;;;;;4993008;28;20041;-72
2023/08/21 03:25:36;;;;;;;7.57;3.13;;;18.00;99.90;;;;;;4993262;28;20034;-72
2023/08/21 03:28:02;;;;;;;9.43;3.28;;;18.00;99.90;;;;;;4994268;28;20027;-72
2023/08/21 03:30:27;;;;;;;12.45;3.55;;;18.00;99.90;;;;;;4993466;28;20073;-72
2023/08/21 03:32:53;;;;;;;10.10;3.13;;;18.00;99.90;;;;;;4996487;28;20448;-72
2023/08/21 03:35:19;;;;;;;10.45;3.40;;;18.00;99.90;;;;;;4983024;28;20438;-73
2023/08/21 03:37:44;;;;;;;7.00;3.17;;;18.00;99.90;;;;;;5015096;28;20172;-73
2023/08/21 03:40:10;;;;;;;8.15;2.92;;;17.90;99.90;;;;;;5004883;28;20061;-72
2023/08/21 03:42:36;;;;;;;9.65;3.53;;;17.90;99.90;;;;;;5015921;28;20030;-72
2023/08/21 03:45:04;;;;;;;8.00;3.33;;;17.90;99.90;;;;;;4993412;28;20019;-72
2023/08/21 03:47:30;;;;;;;10.88;3.33;;;17.90;99.90;;;;;;4992895;28;20072;-72
2023/08/21 03:49:56;;;;;;;9.30;3.22;;;17.90;99.90;;;;;;5003489;28;20030;-72
2023/08/21 03:52:22;;;;;;;7.85;3.13;;;17.90;99.90;;;;;;4994066;28;20389;-72
2023/08/21 03:54:47;;;;;;;8.88;3.10;;;17.90;99.90;;;;;;4993117;28;20022;-72
2023/08/21 03:57:13;;;;;;;10.82;3.20;;;17.80;99.90;;;;;;4993742;28;20018;-72
2023/08/21 03:59:38;;;;;;;8.85;2.88;;;17.80;99.90;;;;;;4994153;28;20101;-72
2023/08/21 04:02:04;;;;;;;9.18;3.20;;;17.80;99.90;;;;;;4999858;28;20058;-73
2023/08/21 04:04:30;;;;;;;7.78;2.78;;;17.80;99.90;;;;;;4993807;28;20437;-73
2023/08/21 04:06:56;;;;;;;9.95;2.80;;;17.80;99.90;;;;;;4993233;28;20026;-72
2023/08/21 04:09:21;;;;;;;11.70;3.22;;;17.80;99.90;;;;;;4992753;28;20477;-72
2023/08/21 04:11:47;;;;;;;7.65;2.97;;;17.70;99.90;;;;;;4996346;28;20025;-72
2023/08/21 04:14:12;;;;;;;8.38;3.50;;;17.70;99.90;;;;;;4997068;28;20054;-72
2023/08/21 04:16:38;;;;;;;8.52;3.50;;;17.70;99.90;;;;;;4992349;28;20026;-72
2023/08/21 04:19:05;;;;;;;10.25;3.60;;;17.70;99.90;;;;;;4992388;28;20062;-72
2023/08/21 04:21:30;;;;;;;10.50;3.25;;;17.70;99.90;;;;;;4991983;28;20030;-72
2023/08/21 04:23:56;;;;;;;12.40;3.53;;;17.70;99.90;;;;;;4992227;28;20080;-72
2023/08/21 04:26:22;;;;;;;8.93;3.38;;;17.70;99.90;;;;;;4991929;28;20500;-72
2023/08/21 04:28:47;;;;;;;10.18;3.22;;;17.70;99.90;;;;;;4991484;28;20056;-72
2023/08/21 04:31:13;;;;;;;12.88;3.55;;;17.70;99.90;;;;;;4992198;28;20462;-72
2023/08/21 04:33:39;;;;;;;11.07;3.67;;;17.70;99.90;;;;;;5002143;28;20474;-72
2023/08/21 04:36:05;;;;;;;8.32;3.65;;;17.70;99.90;;;;;;4992120;28;20022;-72
2023/08/21 04:38:30;;;;;;;14.43;3.55;;;17.70;99.90;;;;;;4992533;28;20153;-73
2023/08/21 04:40:56;;;;;;;11.32;3.83;;;17.70;99.90;;;;;;4992701;28;20038;-73
2023/08/21 04:43:22;;;;;;;10.43;3.65;;;17.70;99.90;;;;;;5005531;28;20093;-73
2023/08/21 04:45:49;;;;;;;10.68;3.70;;;17.70;99.90;;;;;;4996538;28;20058;-73
2023/08/21 04:48:15;;;;;;;15.50;3.70;;;17.70;99.90;;;;;;5002787;28;20018;-73
2023/08/21 04:50:40;;;;;;;10.82;3.65;;;17.70;99.90;;;;;;4991944;28;20520;-73
2023/08/21 04:53:06;;;;;;;10.57;3.70;;;17.70;99.90;;;;;;4992192;28;20112;-73
2023/08/21 04:55:32;;;;;;;16.52;4.05;;;17.70;99.90;;;;;;4992524;28;20054;-73
2023/08/21 04:57:57;;;;;;;10.52;3.78;;;17.70;99.90;;;;;;4992540;28;20026;-73
2023/08/21 05:00:23;;;;;;;10.07;4.00;;;17.70;99.90;;;;;;4991717;28;20073;-73
2023/08/21 05:02:48;;;;;;;11.02;3.45;;;17.70;99.90;;;;;;4998092;28;20028;-73
2023/08/21 05:05:14;;;;;;;9.40;3.30;;;17.70;99.90;;;;;;5000718;28;20080;-73
2023/08/21 05:07:40;;;;;;;8.05;3.45;;;17.70;99.90;;;;;;5004900;28;20117;-73
2023/08/21 05:10:06;;;;;;;10.15;3.80;;;17.70;99.90;;;;;;4993123;28;20030;-73
2023/08/21 05:12:32;;;;;;;9.07;3.50;;;17.70;99.90;;;;;;5008692;28;20135;-73
2023/08/21 05:14:57;;;;;;;12.45;3.75;;;17.70;99.90;;;;;;4993028;28;20110;-73
2023/08/21 05:17:25;;;;;;;10.68;3.85;;;17.80;99.90;;;;;;4992405;28;20018;-73
2023/08/21 05:19:51;;;;;;;11.52;3.67;;;17.80;99.90;;;;;;4997781;28;20122;-73
2023/08/21 05:22:16;;;;;;;14.25;3.95;;;17.80;99.90;;;;;;5006143;28;20417;-73
2023/08/21 05:24:42;;;;;;;12.23;4.20;;;17.80;99.90;;;;;;4995397;28;20496;-72
2023/08/21 05:27:07;;;;;;;15.45;3.88;;;17.80;99.90;;;;;;4990940;28;20050;-72
2023/08/21 05:29:34;;;;;;;12.82;3.80;;;17.80;99.90;;;;;;5004750;28;20089;-72
2023/08/21 05:32:00;;;;;;;14.10;4.05;;;17.80;99.90;;;;;;4989136;28;20021;-72
2023/08/21 05:34:25;;;;;;;11.68;4.10;;;17.90;99.90;;;;;;4989423;28;20465;-72
2023/08/21 05:36:54;;;;;;;12.55;5.00;;;17.90;99.90;;;;;;4994684;28;20031;-72
2023/08/21 05:39:20;;;;;;;12.75;3.88;;;18.00;99.90;;;;;;4993261;28;20385;-71
2023/08/21 05:41:46;;;;;;;14.00;4.63;;;18.00;99.90;;;;;;4991951;28;20018;-73
2023/08/21 05:44:12;;;;;;;12.70;4.55;;;18.00;99.90;;;;;;4990226;28;20082;-72
2023/08/21 05:46:38;;;;;;;18.05;5.35;;;18.10;99.90;;;;;;4992829;28;20042;-72
2023/08/21 05:49:04;;;;;;;13.82;5.03;;;18.10;99.90;;;;;;4993935;28;20035;-72
2023/08/21 05:51:30;;;;;;;17.13;6.35;;;18.20;99.90;;;;;;4993176;28;20442;-71
2023/08/21 05:53:56;;;;;;;11.77;5.30;;;18.20;99.90;;;;;;4995066;28;20116;-71
2023/08/21 05:56:22;;;;;;;13.90;5.30;;;18.20;99.90;;;;;;4994357;28;20171;-72
2023/08/21 05:58:48;;;;;;;13.25;6.03;;;18.20;99.90;;;;;;4993683;28;20440;-72
2023/08/21 06:01:14;;;;;;;16.90;7.15;;;18.30;99.90;;;;;;4993337;28;20026;-71
2023/08/21 06:03:39;;;;;;;16.77;5.35;;;18.30;99.90;;;;;;4994150;28;20061;-71
2023/08/21 06:06:05;;;;;;;15.48;6.38;;;18.30;99.90;;;;;;4994166;28;20014;-71
2023/08/21 06:08:31;;;;;;;11.55;6.13;;;18.40;99.90;;;;;;4992717;28;20031;-72
2023/08/21 06:10:56;;;;;;;17.30;6.32;;;18.40;99.90;;;;;;5001525;28;20022;-72
2023/08/21 06:13:22;;;;;;;13.27;5.88;;;18.50;99.90;;;;;;4994197;28;20354;-71
2023/08/21 06:15:47;;;;;;;18.13;6.40;;;18.50;99.90;;;;;;4993832;28;20019;-71
2023/08/21 06:18:14;;;;;;;19.30;6.55;;;18.60;99.90;;;;;;4993726;28;20532;-71
2023/08/21 06:20:43;;;;;;;17.65;6.50;;;18.60;99.90;;;;;;4993970;28;20027;-71
2023/08/21 06:23:09;;;;;;;22.40;7.05;;;18.70;99.90;;;;;;4993435;28;20030;-71
2023/08/21 06:25:35;;;;;;;19.98;6.57;;;18.70;99.90;;;;;;4994922;28;20465;-71
2023/08/21 06:28:00;;;;;;;20.33;6.22;;;18.80;99.90;;;;;;4994346;28;20492;-72
2023/08/21 06:30:26;;;;;;;15.85;6.18;;;18.80;99.90;;;;;;4999017;28;20033;-72
2023/08/21 06:32:52;;;;;;;18.75;6.22;;;18.80;99.90;;;;;;4997376;28;20034;-72
2023/08/21 06:35:18;;;;;;;17.95;5.85;;;18.90;99.90;;;;;;5004347;28;20093;-72
2023/08/21 06:37:43;;;;;;;18.50;6.07;;;19.00;99.90;;;;;;5005536;28;20069;-72
2023/08/21 06:40:09;;;;;;;25.67;8.23;;;19.00;99.90;;;;;;4997657;28;20088;-72
2023/08/21 06:42:36;;;;;;;22.25;8.15;;;19.10;99.90;;;;;;4996435;28;20057;-72
2023/08/21 06:45:03;;;;;;;23.70;7.68;;;19.10;99.90;;;;;;5000912;28;20021;-72
2023/08/21 06:47:29;;;;;;;22.60;6.82;;;19.20;99.90;;;;;;4999225;28;20029;-72
2023/08/21 06:49:55;;;;;;;17.13;6.18;;;19.30;99.90;;;;;;4994960;28;20465;-71
2023/08/21 06:52:20;;;;;;;23.55;6.88;;;19.30;99.90;;;;;;5006484;28;20033;-72
2023/08/21 06:54:46;;;;;;;24.67;5.90;;;19.40;99.90;;;;;;4995249;28;20121;-72
2023/08/21 06:57:11;;;;;;;20.40;5.88;;;19.40;99.90;;;;;;4996000;28;20026;-72
2023/08/21 06:59:38;;;;;;;18.55;5.75;;;19.50;99.90;;;;;;5005499;28;20547;-72
2023/08/21 07:02:03;;;;;;;15.73;5.38;;;19.50;99.90;;;;;;5001979;28;20033;-73
2023/08/21 07:04:29;;;;;;;16.95;5.45;;;19.60;99.90;;;;;;4993725;28;20041;-72
2023/08/21 07:06:55;;;;;;;22.25;4.80;;;19.60;99.90;;;;;;5004906;28;20075;-72
2023/08/21 07:09:20;;;;;;;17.50;4.75;;;19.70;99.90;;;;;;4995183;28;20030;-72
2023/08/21 07:11:46;;;;;;;20.92;4.80;;;19.80;99.90;;;;;;5006790;28;20354;-72
2023/08/21 07:14:13;;;;;;;14.25;4.32;;;19.80;99.90;;;;;;4997786;28;20026;-72
2023/08/21 07:16:39;;;;;;;24.77;5.38;;;19.90;99.90;;;;;;5002534;28;20030;-72
2023/08/21 07:19:05;;;;;;;18.60;5.28;;;19.90;99.90;;;;;;5007052;28;20349;-72
2023/08/21 07:21:31;;;;;;;15.80;4.72;;;20.00;99.90;;;;;;5000186;28;20057;-72
2023/08/21 07:23:56;;;;;;;21.05;4.88;;;20.10;99.90;;;;;;5005370;28;20420;-72
2023/08/21 07:26:22;;;;;;;17.50;5.00;;;20.10;99.90;;;;;;5004812;28;20018;-72
2023/08/21 07:28:47;;;;;;;14.40;5.00;;;20.20;99.90;;;;;;4997073;28;20029;-72
2023/08/21 07:31:13;;;;;;;17.88;5.35;;;20.30;99.90;;;;;;4997654;28;20366;-72
2023/08/21 07:33:39;;;;;;;18.90;5.30;;;20.40;99.90;;;;;;5001791;28;20026;-73
2023/08/21 07:36:06;;;;;;;22.00;5.80;;;20.50;99.90;;;;;;5003360;28;20480;-72
2023/08/21 07:38:32;;;;;;;20.58;5.93;;;20.50;99.90;;;;;;5002941;28;20033;-72
2023/08/21 07:41:10;;;;;;;20.02;5.75;;;20.70;99.90;;;;;;5007623;28;20025;-71
2023/08/21 07:43:37;;;;;;;21.30;5.97;;;20.80;99.90;;;;;;5003435;28;20023;-72
2023/08/21 07:46:07;;;;;;;19.42;6.30;;;20.90;99.90;;;;;;5018365;28;20029;-72
2023/08/21 07:48:33;;;;;;;18.13;6.35;;;21.00;99.90;;;;;;5004360;28;20028;-72
2023/08/21 07:50:59;;;;;;;13.98;5.18;;;21.10;99.90;;;;;;5005344;28;20029;-73
2023/08/21 07:53:25;;;;;;;15.75;5.75;;;21.30;99.90;;;;;;5007075;28;20485;-73
2023/08/21 07:55:51;;;;;;;20.15;6.13;;;21.40;99.90;;;;;;5007035;28;20543;-72
2023/08/21 07:58:18;;;;;;;18.40;5.35;;;21.50;99.90;;;;;;5010641;28;20022;-73
2023/08/21 08:00:43;;;;;;;14.65;4.88;;;21.60;99.90;;;;;;4994141;28;20069;-73
2023/08/21 08:03:10;;;;;;;21.35;5.57;;;21.80;99.90;;;;;;4994236;28;20049;-73
2023/08/21 08:05:36;;;;;;;16.23;5.40;;;21.90;99.90;;;;;;4991842;28;20035;-73
2023/08/21 08:08:02;;;;;;;17.52;4.80;;;22.00;99.90;;;;;;4990648;28;20379;-73
2023/08/21 08:10:28;;;;;;;16.50;5.13;;;22.20;99.90;;;;;;4998399;28;20029;-72
2023/08/21 08:12:54;;;;;;;12.85;4.38;;;22.40;99.90;;;;;;4995240;28;20026;-73
2023/08/21 08:15:20;;;;;;;20.77;5.85;;;22.50;99.90;;;;;;5002130;28;20014;-73
2023/08/21 08:17:46;;;;;;;13.38;4.85;;;22.70;99.90;;;;;;5002345;28;20040;-72
2023/08/21 08:20:13;;;;;;;13.80;4.03;;;22.80;99.90;;;;;;4996123;28;20030;-73
2023/08/21 08:22:40;;;;;;;18.35;4.20;;;22.90;99.90;;;;;;5008465;28;20029;-73
2023/08/21 08:25:06;;;;;;;10.75;3.65;;;23.00;99.90;;;;;;4996213;28;20026;-72
2023/08/21 08:27:32;;;;;;;11.10;3.40;;;23.20;99.90;;;;;;4994046;28;20068;-73
2023/08/21 08:29:58;;;;;;;16.13;3.75;;;23.30;99.90;;;;;;4998196;28;20101;-73
2023/08/21 08:32:23;;;;;;;14.05;3.38;;;23.40;99.90;;;;;;4996277;28;20525;-73
2023/08/21 08:34:49;;;;;;;12.00;3.05;;;23.60;99.90;;;;;;4996480;28;20104;-73
2023/08/21 08:37:15;;;;;;;12.88;3.97;;;23.60;99.90;;;;;;4991327;28;20469;-73
2023/08/21 08:39:40;;;;;;;15.95;3.67;;;23.80;99.90;;;;;;5007903;28;20034;-73
2023/08/21 08:42:07;;;;;;;16.80;3.47;;;23.90;99.90;;;;;;5008180;28;20465;-72
2023/08/21 08:44:35;;;;;;;11.13;2.92;;;24.00;99.90;;;;;;5002407;28;20029;-73
2023/08/21 08:47:02;;;;;;;14.90;2.80;;;24.20;99.90;;;;;;4995732;28;20024;-73
2023/08/21 08:49:28;;;;;;;11.48;2.55;;;24.40;99.90;;;;;;5009607;28;20030;-73
2023/08/21 08:51:55;;;;;;;11.45;2.83;;;24.50;99.90;;;;;;4997848;28;20033;-73
2023/08/21 08:54:22;;;;;;;13.43;2.72;;;24.60;99.90;;;;;;4993591;28;20027;-73
2023/08/21 08:56:49;;;;;;;13.95;3.00;;;24.70;99.90;;;;;;5006385;28;20103;-73
2023/08/21 08:59:15;;;;;;;17.10;3.20;;;24.80;99.90;;;;;;4989468;28;20050;-73
2023/08/21 09:01:43;;;;;;;10.90;2.90;;;24.90;99.90;;;;;;4990536;28;20081;-73
2023/08/21 09:04:10;;;;;;;13.43;3.08;;;25.00;99.90;;;;;;4987261;28;20023;-73
2023/08/21 09:06:36;;;;;;;10.38;3.10;;;25.10;99.90;;;;;;4990383;28;20024;-73
2023/08/21 09:09:02;;;;;;;14.60;2.85;;;25.30;99.90;;;;;;4990865;28;20037;-73
2023/08/21 09:11:27;;;;;;;11.77;2.63;;;25.40;99.90;;;;;;4998264;28;20074;-73
2023/08/21 09:13:55;;;;;;;15.30;2.97;;;25.60;99.90;;;;;;4993318;28;20022;-73
2023/08/21 09:16:22;;;;;;;9.80;2.60;;;25.80;99.90;;;;;;4991402;28;20230;-73
2023/08/21 09:18:56;;;;;;;8.52;2.80;;;25.90;99.90;;;;;;4989809;28;20031;-73
2023/08/21 09:21:24;;;;;;;11.88;2.25;;;26.00;99.90;;;;;;4995888;28;20026;-73
2023/08/21 09:23:57;;;;;;;9.55;2.40;;;26.00;99.90;;;;;;4993119;28;20113;-73
2023/08/21 09:26:23;;;;;;;10.27;2.40;;;26.00;99.90;;;;;;4995033;28;20037;-73
2023/08/21 09:28:50;;;;;;;10.75;2.17;;;26.00;99.90;;;;;;4994724;28;20027;-73
2023/08/21 09:31:21;;;;;;;7.18;2.08;;;25.90;99.90;;;;;;4995826;28;20484;-73
2023/08/21 09:34:04;;;;;;;10.65;2.40;;;26.00;99.90;;;;;;5000473;28;20167;-73
2023/08/21 09:36:31;;;;;;;10.77;2.75;;;26.10;99.90;;;;;;4992906;28;20540;-73
2023/08/21 09:38:57;;;;;;;8.43;2.20;;;26.30;99.90;;;;;;4993379;28;20496;-73
2023/08/21 09:41:23;;;;;;;9.93;1.88;;;26.40;99.90;;;;;;5014036;28;20125;-74
2023/08/21 09:43:49;;;;;;;12.05;2.58;;;26.50;99.90;;;;;;4996958;28;20112;-73
2023/08/21 09:46:16;;;;;;;10.35;2.40;;;26.50;99.90;;;;;;4993052;28;20018;-74
2023/08/21 09:48:43;;;;;;;7.40;1.98;;;26.50;99.90;;;;;;4992848;28;20089;-72
2023/08/21 09:51:11;;;;;;;7.63;1.92;;;26.70;99.90;;;;;;4993771;28;20494;-72
2023/08/21 09:53:38;;;;;;;7.95;2.20;;;26.90;99.90;;;;;;4994360;28;20482;-72
2023/08/21 09:56:05;;;;;;;6.57;2.00;;;27.00;99.90;;;;;;4992753;28;20053;-74
2023/08/21 09:58:31;;;;;;;5.57;1.67;;;27.10;99.90;;;;;;4994337;28;20046;-74
2023/08/21 10:01:00;;;;;;;5.18;1.65;;;27.30;99.90;;;;;;4994112;28;20039;-74
2023/08/21 10:03:28;;;;;;;6.53;1.95;;;27.40;99.90;;;;;;4993809;28;20549;-74
2023/08/21 10:05:57;;;;;;;5.65;1.58;;;27.40;99.90;;;;;;4994035;28;20022;-74
2023/08/21 10:08:25;;;;;;;7.15;1.83;;;27.40;99.90;;;;;;4994148;28;20026;-74
2023/08/21 10:10:51;;;;;;;8.23;1.58;;;27.40;99.90;;;;;;5001171;28;20072;-74
2023/08/21 10:13:17;;;;;;;4.75;1.73;;;27.30;99.90;;;;;;4993864;28;20401;-74
2023/08/21 10:15:44;;;;;;;8.32;1.70;;;27.20;99.90;;;;;;4993957;28;20089;-74
2023/08/21 10:18:31;;;;;;;5.13;1.42;;;27.20;99.90;;;;;;4993560;28;20026;-74
2023/08/21 10:21:14;;;;;;;4.53;1.50;;;27.30;99.90;;;;;;4993825;28;20034;-74
2023/08/21 10:23:40;;;;;;;7.75;1.70;;;27.20;99.90;;;;;;4992921;28;20517;-74
2023/08/21 10:26:08;;;;;;;6.72;1.50;;;27.00;99.90;;;;;;4993757;28;20450;-74
2023/08/21 10:29:01;;;;;;;4.65;1.20;;;26.80;99.90;;;;;;4993293;28;20559;-74
2023/08/21 10:31:38;;;;;;;7.32;1.58;;;26.80;99.90;;;;;;4996296;28;20025;-74
2023/08/21 10:34:12;;;;;;;6.25;1.48;;;26.90;99.90;;;;;;4998640;28;20105;-74
2023/08/21 10:36:44;;;;;;;6.30;1.83;;;27.10;99.90;;;;;;5008404;28;20026;-74
2023/08/21 10:39:12;;;;;;;4.20;1.48;;;27.20;99.60;;;;;;4986932;28;20034;-74
2023/08/21 10:41:38;;;;;;;5.75;1.23;;;27.30;99.10;;;;;;4993441;28;20050;-74
2023/08/21 10:44:06;;;;;;;6.20;1.13;;;27.30;98.00;;;;;;4993506;28;20042;-74
2023/08/21 10:46:50;;;;;;;6.97;1.33;;;27.20;96.80;;;;;;5001999;28;20010;-74
2023/08/21 10:49:16;;;;;;;4.23;1.30;;;27.30;95.90;;;;;;4994314;28;20105;-74
2023/08/21 10:51:43;;;;;;;5.63;1.40;;;27.20;96.10;;;;;;4993346;28;20441;-74
2023/08/21 10:54:13;;;;;;;5.10;1.50;;;27.20;96.50;;;;;;4993139;28;20069;-74
2023/08/21 10:56:39;;;;;;;3.85;1.20;;;27.30;95.90;;;;;;4993184;28;20355;-74
2023/08/21 10:59:05;;;;;;;5.50;1.10;;;27.40;95.80;;;;;;4992910;28;20099;-74
2023/08/21 11:01:44;;;;;;;5.88;1.23;;;27.40;94.90;;;;;;4993085;28;20281;-74
2023/08/21 11:04:11;;;;;;;5.10;1.10;;;27.60;94.50;;;;;;4990058;28;20505;-72
2023/08/21 11:06:38;;;;;;;5.10;1.40;;;27.70;94.60;;;;;;4993244;28;20025;-75
2023/08/21 11:09:04;;;;;;;3.60;1.15;;;27.80;94.40;;;;;;4993360;28;20073;-72
2023/08/21 11:11:30;;;;;;;3.72;1.05;;;27.90;93.80;;;;;;5003822;28;20042;-73
2023/08/21 11:13:56;;;;;;;4.68;0.98;;;28.10;92.90;;;;;;5002443;28;20015;-73
2023/08/21 11:16:21;;;;;;;5.60;1.17;;;28.20;91.90;;;;;;5011125;28;20022;-73
2023/08/21 11:18:47;;;;;;;3.67;1.13;;;28.30;91.40;;;;;;4999413;28;20509;-73
2023/08/21 11:21:13;;;;;;;4.72;1.27;;;28.20;91.70;;;;;;5000931;28;20027;-73
2023/08/21 11:23:40;;;;;;;3.30;1.10;;;28.20;92.00;;;;;;5002185;28;20026;-73
2023/08/21 11:26:09;;;;;;;3.47;1.20;;;28.30;91.70;;;;;;5012584;28;20060;-73
2023/08/21 11:28:35;;;;;;;4.85;1.40;;;28.20;91.50;;;;;;5000195;28;20478;-72
2023/08/21 11:31:00;;;;;;;3.20;1.10;;;28.20;91.40;;;;;;5000192;28;20030;-73
2023/08/21 11:33:28;;;;;;;4.43;1.40;;;28.20;91.90;;;;;;5005288;28;20029;-73
2023/08/21 11:35:54;;;;;;;4.90;1.42;;;28.30;91.10;;;;;;4999934;28;20509;-73
2023/08/21 11:38:21;;;;;;;4.00;1.33;;;28.40;90.90;;;;;;5000767;28;20045;-73
2023/08/21 11:40:59;;;;;;;6.28;1.10;;;28.40;90.80;;;;;;4995530;28;20038;-73
2023/08/21 11:43:39;;;;;;;9.80;1.60;;;28.40;89.60;;;;;;4989023;28;20073;-73
2023/08/21 11:46:06;;;;;;;5.88;1.42;;;28.30;90.00;;;;;;4997166;28;20033;-75
2023/08/21 11:48:35;;;;;;;5.25;1.13;;;28.30;90.50;;;;;;5000291;28;20022;-74
2023/08/21 11:51:01;;;;;;;7.72;1.60;;;28.40;90.30;;;;;;5013865;28;20030;-73
2023/08/21 11:53:48;;;;;;;3.55;1.25;;;28.40;90.30;;;;;;4997711;28;20049;-73
2023/08/21 11:56:16;;;;;;;7.32;1.45;;;28.40;90.00;;;;;;4998785;28;20065;-73
2023/08/21 11:58:46;;;;;;;4.55;1.40;;;28.40;90.20;;;;;;4997787;28;20547;-73
2023/08/21 12:01:19;;;;;;;6.25;1.63;;;28.40;90.50;;;;;;4991268;28;20448;-73
2023/08/21 12:03:45;;;;;;;4.88;1.33;;;28.40;90.40;;;;;;4997380;28;20025;-73
2023/08/21 12:06:12;;;;;;;5.00;1.40;;;28.30;90.40;;;;;;4997788;28;20030;-74
2023/08/21 12:08:39;;;;;;;5.10;1.30;;;28.30;90.50;;;;;;5001772;28;20030;-73
2023/08/21 12:11:05;;;;;;;6.85;1.60;;;28.20;90.60;;;;;;5007854;28;20029;-73
2023/08/21 12:13:31;;;;;;;2.90;1.30;;;28.20;90.50;;;;;;5001917;28;20018;-73
2023/08/21 12:15:57;;;;;;;5.03;1.40;;;28.20;90.60;;;;;;5002125;28;20029;-74
2023/08/21 12:18:23;;;;;;;8.07;1.40;;;28.40;90.70;;;;;;4999314;28;20847;-73
2023/08/21 12:20:49;;;;;;;5.57;1.25;;;28.50;90.00;;;;;;4997343;28;20057;-73
2023/08/21 12:23:15;;;;;;;3.78;1.13;;;28.50;89.30;;;;;;4996002;28;20030;-73
2023/08/21 12:25:41;;;;;;;7.63;1.42;;;28.50;89.30;;;;;;4998049;28;20023;-74
2023/08/21 12:28:08;;;;;;;4.28;1.30;;;28.50;89.40;;;;;;5012282;28;20370;-73
2023/08/21 12:30:34;;;;;;;3.92;1.40;;;28.60;89.20;;;;;;4990235;28;20022;-73
2023/08/21 12:32:59;;;;;;;5.72;1.40;;;28.60;88.80;;;;;;4992183;28;20022;-73
2023/08/21 12:35:25;;;;;;;6.82;1.60;;;28.50;89.00;;;;;;5007938;28;20071;-74
2023/08/21 12:37:51;;;;;;;5.90;1.48;;;28.40;89.60;;;;;;5005378;28;20120;-74
2023/08/21 12:40:16;;;;;;;5.82;1.60;;;28.40;90.00;;;;;;5002062;28;20057;-73
2023/08/21 12:42:42;;;;;;;5.43;1.60;;;28.30;90.50;;;;;;5004242;28;20438;-74